sensor_id;sensor_type;location;lat;lon;timestamp;temperature;humidity
4922;DHT22;16625;53.624;10.106;2023-06-24T00:02:13;14.80;99.90
4922;DHT22;16625;53.624;10.106;2023-06-24T00:04:40;14.70;99.90
4922;DHT22;16625;53.624;10.106;2023-06-24T00:07:07;14.50;99.90
4922;DHT22;16625;53.624;10.106;2023-06-24T00:09:33;14.50;99.90
4922;DHT22;16625;53.624;10.106;2023-06-24T00:12:02;14.40;99.90
4922;DHT22;16625;53.624;10.106;2023-06-24T00:14:29;14.40;99.90
4922;DHT22;16625;53.624;10.106;2023-06-24T00:16:56;14.40;99.90
4922;DHT22;16625;53.624;10.106;2023-06-24T00:19:24;14.30;99.90
4922;DHT22;16625;53.624;10.106;2023-06-24T00:21:53;14.30;99.90
4922;DHT22;16625;53.624;10.106;2023-06-24T00:24:20;14.10;99.90
4922;DHT22;16625;53.624;10.106;2023-06-24T00:26:51;14.10;99.90
4922;DHT22;16625;53.624;10.106;2023-06-24T00:29:20;14.00;99.90
4922;DHT22;16625;53.624;10.106;2023-06-24T00:31:47;14.00;99.90
4922;DHT22;16625;53.624;10.106;2023-06-24T00:34:14;13.90;99.90
4922;DHT22;16625;53.624;10.106;2023-06-24T00:36:41;13.90;99.90
4922;DHT22;16625;53.624;10.106;2023-06-24T00:39:09;13.80;99.90
4922;DHT22;16625;53.624;10.106;2023-06-24T00:41:36;13.80;99.90
4922;DHT22;16625;53.624;10.106;2023-06-24T00:44:03;13.70;99.90
4922;DHT22;16625;53.624;10.106;2023-06-24T00:46:32;13.70;99.90
4922;DHT22;16625;53.624;10.106;2023-06-24T00:48:59;13.60;99.90
4922;DHT22;16625;53.624;10.106;2023-06-24T00:51:28;13.60;99.90
4922;DHT22;16625;53.624;10.106;2023-06-24T00:53:57;13.60;99.90
4922;DHT22;16625;53.624;10.106;2023-06-24T00:56:27;13.60;99.90
4922;DHT22;16625;53.624;10.106;2023-06-24T00:58:55;13.50;99.90
4922;DHT22;16625;53.624;10.106;2023-06-24T01:01:24;13.50;99.90
4922;DHT22;16625;53.624;10.106;2023-06-24T01:03:53;13.50;99.90
4922;DHT22;16625;53.624;10.106;2023-06-24T01:06:20;13.40;99.90
4922;DHT22;16625;53.624;10.106;2023-06-24T01:08:48;13.40;99.90
4922;DHT22;16625;53.624;10.106;2023-06-24T01:11:16;13.30;99.90
4922;DHT22;16625;53.624;10.106;2023-06-24T01:13:43;13.30;99.90
4922;DHT22;16625;53.624;10.106;2023-06-24T01:16:14;13.20;99.90
4922;DHT22;16625;53.624;10.106;2023-06-24T01:18:50;13.20;99.90
4922;DHT22;16625;53.624;10.106;2023-06-24T01:21:31;13.10;99.90
4922;DHT22;16625;53.624;10.106;2023-06-24T01:24:28;13.10;99.90
4922;DHT22;16625;53.624;10.106;2023-06-24T01:27:16;13.10;99.90
4922;DHT22;16625;53.624;10.106;2023-06-24T01:30:07;13.10;99.90
4922;DHT22;16625;53.624;10.106;2023-06-24T01:32:44;13.20;99.90
4922;DHT22;16625;53.624;10.106;2023-06-24T01:35:15;13.20;99.90
4922;DHT22;16625;53.624;10.106;2023-06-24T01:37:50;13.20;99.90
4922;DHT22;16625;53.624;10.106;2023-06-24T01:40:25;13.10;99.90
4922;DHT22;16625;53.624;10.106;2023-06-24T01:42:54;12.90;99.90
4922;DHT22;16625;53.624;10.106;2023-06-24T01:45:26;13.00;99.90
4922;DHT22;16625;53.624;10.106;2023-06-24T01:48:00;13.00;99.90
4922;DHT22;16625;53.624;10.106;2023-06-24T01:50:30;13.10;99.90
4922;DHT22;16625;53.624;10.106;2023-06-24T01:52:59;13.00;99.90
4922;DHT22;16625;53.624;10.106;2023-06-24T01:55:29;13.00;99.90
4922;DHT22;16625;53.624;10.106;2023-06-24T01:57:57;13.20;99.90
4922;DHT22;16625;53.624;10.106;2023-06-24T02:00:24;12.90;99.90
4922;DHT22;16625;53.624;10.106;2023-06-24T02:02:54;12.90;99.90
4922;DHT22;16625;53.624;10.106;2023-06-24T02:05:22;12.80;99.90
4922;DHT22;16625;53.624;10.106;2023-06-24T02:07:52;12.80;99.90
4922;DHT22;16625;53.624;10.106;2023-06-24T02:10:20;12.80;99.90
4922;DHT22;16625;53.624;10.106;2023-06-24T02:12:51;12.70;99.90
4922;DHT22;16625;53.624;10.106;2023-06-24T02:15:19;12.60;99.90
4922;DHT22;16625;53.624;10.106;2023-06-24T02:17:49;12.60;99.90
4922;DHT22;16625;53.624;10.106;2023-06-24T02:20:19;12.50;99.90
4922;DHT22;16625;53.624;10.106;2023-06-24T02:22:47;12.60;99.90
4922;DHT22;16625;53.624;10.106;2023-06-24T02:25:14;12.50;99.90
4922;DHT22;16625;53.624;10.106;2023-06-24T02:27:42;12.50;99.90
4922;DHT22;16625;53.624;10.106;2023-06-24T02:30:10;12.60;99.90
4922;DHT22;16625;53.624;10.106;2023-06-24T02:32:37;12.40;99.90
4922;DHT22;16625;53.624;10.106;2023-06-24T02:35:05;12.30;99.90
4922;DHT22;16625;53.624;10.106;2023-06-24T02:37:34;12.40;99.90
4922;DHT22;16625;53.624;10.106;2023-06-24T02:40:02;12.40;99.90
4922;DHT22;16625;53.624;10.106;2023-06-24T02:42:30;12.40;99.90
4922;DHT22;16625;53.624;10.106;2023-06-24T02:44:57;12.30;99.90
4922;DHT22;16625;53.624;10.106;2023-06-24T02:47:25;12.40;99.90
4922;DHT22;16625;53.624;10.106;2023-06-24T02:49:53;12.40;99.90
4922;DHT22;16625;53.624;10.106;2023-06-24T02:52:21;12.40;99.90
4922;DHT22;16625;53.624;10.106;2023-06-24T02:54:50;12.50;99.90
4922;DHT22;16625;53.624;10.106;2023-06-24T02:57:17;12.40;99.90
4922;DHT22;16625;53.624;10.106;2023-06-24T02:59:45;12.30;99.90
4922;DHT22;16625;53.624;10.106;2023-06-24T03:02:13;12.30;99.90
4922;DHT22;16625;53.624;10.106;2023-06-24T03:04:42;12.30;99.90
4922;DHT22;16625;53.624;10.106;2023-06-24T03:07:10;12.50;99.90
4922;DHT22;16625;53.624;10.106;2023-06-24T03:09:37;12.40;99.90
4922;DHT22;16625;53.624;10.106;2023-06-24T03:12:08;12.40;99.90
4922;DHT22;16625;53.624;10.106;2023-06-24T03:14:35;12.30;99.90
4922;DHT22;16625;53.624;10.106;2023-06-24T03:17:02;12.40;99.90
4922;DHT22;16625;53.624;10.106;2023-06-24T03:19:29;12.30;99.90
4922;DHT22;16625;53.624;10.106;2023-06-24T03:21:56;12.40;99.90
4922;DHT22;16625;53.624;10.106;2023-06-24T03:24:23;12.50;99.90
4922;DHT22;16625;53.624;10.106;2023-06-24T03:26:50;12.50;99.90
4922;DHT22;16625;53.624;10.106;2023-06-24T03:29:23;12.40;99.90
4922;DHT22;16625;53.624;10.106;2023-06-24T03:31:50;12.60;99.90
4922;DHT22;16625;53.624;10.106;2023-06-24T03:34:17;12.80;99.90
4922;DHT22;16625;53.624;10.106;2023-06-24T03:36:44;12.60;99.90
4922;DHT22;16625;53.624;10.106;2023-06-24T03:39:11;12.60;99.90
4922;DHT22;16625;53.624;10.106;2023-06-24T03:41:37;12.60;99.90
4922;DHT22;16625;53.624;10.106;2023-06-24T03:44:05;12.80;99.90
4922;DHT22;16625;53.624;10.106;2023-06-24T03:46:33;12.80;99.90
4922;DHT22;16625;53.624;10.106;2023-06-24T03:49:00;12.70;99.90
4922;DHT22;16625;53.624;10.106;2023-06-24T03:51:27;12.80;99.90
4922;DHT22;16625;53.624;10.106;2023-06-24T03:53:55;12.80;99.90
4922;DHT22;16625;53.624;10.106;2023-06-24T03:56:22;12.90;99.90
4922;DHT22;16625;53.624;10.106;2023-06-24T03:58:48;13.00;99.90
4922;DHT22;16625;53.624;10.106;2023-06-24T04:01:15;13.10;99.90
4922;DHT22;16625;53.624;10.106;2023-06-24T04:03:46;13.30;99.90
4922;DHT22;16625;53.624;10.106;2023-06-24T04:06:13;13.20;99.90
4922;DHT22;16625;53.624;10.106;2023-06-24T04:08:40;13.50;99.90
4922;DHT22;16625;53.624;10.106;2023-06-24T04:11:09;13.40;99.90
4922;DHT22;16625;53.624;10.106;2023-06-24T04:13:37;13.50;99.90
4922;DHT22;16625;53.624;10.106;2023-06-24T04:16:04;13.70;99.90
4922;DHT22;16625;53.624;10.106;2023-06-24T04:18:31;13.60;99.90
4922;DHT22;16625;53.624;10.106;2023-06-24T04:20:59;13.70;99.90
4922;DHT22;16625;53.624;10.106;2023-06-24T04:23:26;13.70;99.90
4922;DHT22;16625;53.624;10.106;2023-06-24T04:25:53;13.70;99.90
4922;DHT22;16625;53.624;10.106;2023-06-24T04:28:20;13.80;99.90
4922;DHT22;16625;53.624;10.106;2023-06-24T04:30:47;13.80;99.90
4922;DHT22;16625;53.624;10.106;2023-06-24T04:33:14;13.80;99.90
4922;DHT22;16625;53.624;10.106;2023-06-24T04:35:41;13.90;99.90
4922;DHT22;16625;53.624;10.106;2023-06-24T04:38:10;14.00;99.90
4922;DHT22;16625;53.624;10.106;2023-06-24T04:40:43;14.00;99.90
4922;DHT22;16625;53.624;10.106;2023-06-24T04:43:10;14.00;99.90
4922;DHT22;16625;53.624;10.106;2023-06-24T04:45:37;14.10;99.90
4922;DHT22;16625;53.624;10.106;2023-06-24T04:48:05;14.10;99.90
4922;DHT22;16625;53.624;10.106;2023-06-24T04:50:32;14.20;99.90
4922;DHT22;16625;53.624;10.106;2023-06-24T04:52:59;14.40;99.90
4922;DHT22;16625;53.624;10.106;2023-06-24T04:55:28;14.60;99.90
4922;DHT22;16625;53.624;10.106;2023-06-24T04:57:56;14.60;99.90
4922;DHT22;16625;53.624;10.106;2023-06-24T05:00:23;14.60;99.90
4922;DHT22;16625;53.624;10.106;2023-06-24T05:02:50;14.70;99.90
4922;DHT22;16625;53.624;10.106;2023-06-24T05:05:17;14.80;99.90
4922;DHT22;16625;53.624;10.106;2023-06-24T05:07:46;14.90;99.90
4922;DHT22;16625;53.624;10.106;2023-06-24T05:10:12;15.00;99.90
4922;DHT22;16625;53.624;10.106;2023-06-24T05:12:41;15.10;99.90
4922;DHT22;16625;53.624;10.106;2023-06-24T05:15:08;15.20;99.90
4922;DHT22;16625;53.624;10.106;2023-06-24T05:17:35;15.40;99.90
4922;DHT22;16625;53.624;10.106;2023-06-24T05:20:03;15.40;99.90
4922;DHT22;16625;53.624;10.106;2023-06-24T05:22:30;15.60;99.90
4922;DHT22;16625;53.624;10.106;2023-06-24T05:24:57;15.60;99.90
4922;DHT22;16625;53.624;10.106;2023-06-24T05:27:24;15.70;99.90
4922;DHT22;16625;53.624;10.106;2023-06-24T05:29:52;15.80;99.90
4922;DHT22;16625;53.624;10.106;2023-06-24T05:32:19;15.80;99.90
4922;DHT22;16625;53.624;10.106;2023-06-24T05:34:46;15.90;99.90
4922;DHT22;16625;53.624;10.106;2023-06-24T05:37:13;16.00;99.90
4922;DHT22;16625;53.624;10.106;2023-06-24T05:39:40;16.10;99.90
4922;DHT22;16625;53.624;10.106;2023-06-24T05:42:07;16.20;99.90
4922;DHT22;16625;53.624;10.106;2023-06-24T05:44:34;16.20;99.90
4922;DHT22;16625;53.624;10.106;2023-06-24T05:47:03;16.20;99.90
4922;DHT22;16625;53.624;10.106;2023-06-24T05:49:30;16.20;99.90
4922;DHT22;16625;53.624;10.106;2023-06-24T05:51:57;16.40;99.90
4922;DHT22;16625;53.624;10.106;2023-06-24T05:54:24;16.40;99.90
4922;DHT22;16625;53.624;10.106;2023-06-24T05:56:51;16.60;99.90
4922;DHT22;16625;53.624;10.106;2023-06-24T05:59:18;16.70;99.90
4922;DHT22;16625;53.624;10.106;2023-06-24T06:01:45;16.70;99.90
4922;DHT22;16625;53.624;10.106;2023-06-24T06:04:13;16.80;99.90
4922;DHT22;16625;53.624;10.106;2023-06-24T06:06:40;16.90;99.90
4922;DHT22;16625;53.624;10.106;2023-06-24T06:09:07;17.00;99.90
4922;DHT22;16625;53.624;10.106;2023-06-24T06:11:34;17.20;99.90
4922;DHT22;16625;53.624;10.106;2023-06-24T06:14:01;17.40;91.60
4922;DHT22;16625;53.624;10.106;2023-06-24T06:16:28;17.40;17.60
4922;DHT22;16625;53.624;10.106;2023-06-24T06:18:55;17.60;1.00
4922;DHT22;16625;53.624;10.106;2023-06-24T06:21:24;17.80;99.90
4922;DHT22;16625;53.624;10.106;2023-06-24T06:23:51;17.80;99.90
4922;DHT22;16625;53.624;10.106;2023-06-24T06:26:18;17.90;99.90
4922;DHT22;16625;53.624;10.106;2023-06-24T06:28:45;18.10;99.90
4922;DHT22;16625;53.624;10.106;2023-06-24T06:31:12;18.40;99.90
4922;DHT22;16625;53.624;10.106;2023-06-24T06:33:39;18.40;99.90
4922;DHT22;16625;53.624;10.106;2023-06-24T06:36:06;18.60;1.00
4922;DHT22;16625;53.624;10.106;2023-06-24T06:38:35;18.70;99.90
4922;DHT22;16625;53.624;10.106;2023-06-24T06:41:02;18.40;99.90
4922;DHT22;16625;53.624;10.106;2023-06-24T06:43:28;18.60;80.90
4922;DHT22;16625;53.624;10.106;2023-06-24T06:45:55;18.50;99.90
4922;DHT22;16625;53.624;10.106;2023-06-24T06:48:22;18.70;99.90
4922;DHT22;16625;53.624;10.106;2023-06-24T06:50:49;18.90;99.90
4922;DHT22;16625;53.624;10.106;2023-06-24T06:53:18;18.90;99.90
4922;DHT22;16625;53.624;10.106;2023-06-24T06:55:46;18.70;21.90
4922;DHT22;16625;53.624;10.106;2023-06-24T06:58:13;18.60;1.00
4922;DHT22;16625;53.624;10.106;2023-06-24T07:00:40;18.60;1.00
4922;DHT22;16625;53.624;10.106;2023-06-24T07:03:07;18.80;1.00
4922;DHT22;16625;53.624;10.106;2023-06-24T07:05:36;18.70;77.20
4922;DHT22;16625;53.624;10.106;2023-06-24T07:10:31;18.90;1.00
4922;DHT22;16625;53.624;10.106;2023-06-24T07:13:00;18.90;99.90
4922;DHT22;16625;53.624;10.106;2023-06-24T07:15:27;18.90;27.70
4922;DHT22;16625;53.624;10.106;2023-06-24T07:17:54;19.10;1.00
4922;DHT22;16625;53.624;10.106;2023-06-24T07:20:22;19.10;1.00
4922;DHT22;16625;53.624;10.106;2023-06-24T07:22:49;19.30;1.00
4922;DHT22;16625;53.624;10.106;2023-06-24T07:25:16;19.30;1.00
4922;DHT22;16625;53.624;10.106;2023-06-24T07:27:42;19.20;1.00
4922;DHT22;16625;53.624;10.106;2023-06-24T07:30:11;19.40;1.00
4922;DHT22;16625;53.624;10.106;2023-06-24T07:32:38;19.50;1.00
4922;DHT22;16625;53.624;10.106;2023-06-24T07:35:06;19.60;99.90
4922;DHT22;16625;53.624;10.106;2023-06-24T07:37:34;19.80;99.90
4922;DHT22;16625;53.624;10.106;2023-06-24T07:40:01;19.70;1.00
4922;DHT22;16625;53.624;10.106;2023-06-24T07:42:28;20.00;53.30
4922;DHT22;16625;53.624;10.106;2023-06-24T07:44:55;19.90;1.00
4922;DHT22;16625;53.624;10.106;2023-06-24T07:47:23;20.20;1.00
4922;DHT22;16625;53.624;10.106;2023-06-24T07:49:51;20.10;99.90
4922;DHT22;16625;53.624;10.106;2023-06-24T07:52:18;20.20;97.20
4922;DHT22;16625;53.624;10.106;2023-06-24T07:54:45;20.30;1.00
4922;DHT22;16625;53.624;10.106;2023-06-24T07:57:12;20.10;1.00
4922;DHT22;16625;53.624;10.106;2023-06-24T07:59:38;20.20;98.00
4922;DHT22;16625;53.624;10.106;2023-06-24T08:02:05;20.10;18.90
4922;DHT22;16625;53.624;10.106;2023-06-24T08:04:33;20.30;16.90
4922;DHT22;16625;53.624;10.106;2023-06-24T08:07:02;20.40;1.00
4922;DHT22;16625;53.624;10.106;2023-06-24T08:09:29;20.40;99.90
4922;DHT22;16625;53.624;10.106;2023-06-24T08:11:55;20.40;1.00
4922;DHT22;16625;53.624;10.106;2023-06-24T08:14:22;20.50;1.00
4922;DHT22;16625;53.624;10.106;2023-06-24T08:16:49;20.80;1.00
4922;DHT22;16625;53.624;10.106;2023-06-24T08:19:16;20.90;99.90
4922;DHT22;16625;53.624;10.106;2023-06-24T08:21:44;21.00;99.90
4922;DHT22;16625;53.624;10.106;2023-06-24T08:24:11;21.00;99.90
4922;DHT22;16625;53.624;10.106;2023-06-24T08:29:41;21.40;99.90
4922;DHT22;16625;53.624;10.106;2023-06-24T08:32:08;21.50;99.90
4922;DHT22;16625;53.624;10.106;2023-06-24T08:34:38;21.60;99.90
4922;DHT22;16625;53.624;10.106;2023-06-24T08:37:08;21.70;99.90
4922;DHT22;16625;53.624;10.106;2023-06-24T08:39:34;21.70;99.90
4922;DHT22;16625;53.624;10.106;2023-06-24T08:42:03;21.80;99.90
4922;DHT22;16625;53.624;10.106;2023-06-24T08:44:30;21.90;99.90
4922;DHT22;16625;53.624;10.106;2023-06-24T08:46:57;22.00;99.90
4922;DHT22;16625;53.624;10.106;2023-06-24T08:49:28;21.80;21.60
4922;DHT22;16625;53.624;10.106;2023-06-24T08:52:00;21.70;42.80
4922;DHT22;16625;53.624;10.106;2023-06-24T08:54:31;21.80;1.00
4922;DHT22;16625;53.624;10.106;2023-06-24T08:57:01;21.80;1.00
4922;DHT22;16625;53.624;10.106;2023-06-24T08:59:30;21.70;21.70
4922;DHT22;16625;53.624;10.106;2023-06-24T09:01:57;21.80;1.00
4922;DHT22;16625;53.624;10.106;2023-06-24T09:04:24;22.10;68.50
4922;DHT22;16625;53.624;10.106;2023-06-24T09:06:51;22.30;1.00
4922;DHT22;16625;53.624;10.106;2023-06-24T09:09:19;22.50;1.00
4922;DHT22;16625;53.624;10.106;2023-06-24T09:11:55;22.50;1.00
4922;DHT22;16625;53.624;10.106;2023-06-24T09:14:22;22.40;1.00
4922;DHT22;16625;53.624;10.106;2023-06-24T09:16:53;22.50;1.00
4922;DHT22;16625;53.624;10.106;2023-06-24T09:19:21;22.40;1.00
4922;DHT22;16625;53.624;10.106;2023-06-24T09:21:48;22.60;1.00
4922;DHT22;16625;53.624;10.106;2023-06-24T09:24:16;22.70;1.00
4922;DHT22;16625;53.624;10.106;2023-06-24T09:26:44;22.70;1.00
4922;DHT22;16625;53.624;10.106;2023-06-24T09:29:13;22.80;1.00
4922;DHT22;16625;53.624;10.106;2023-06-24T09:31:47;23.00;1.00
4922;DHT22;16625;53.624;10.106;2023-06-24T09:34:15;23.00;1.00
4922;DHT22;16625;53.624;10.106;2023-06-24T09:36:43;23.00;1.00
4922;DHT22;16625;53.624;10.106;2023-06-24T09:39:10;23.10;1.00
4922;DHT22;16625;53.624;10.106;2023-06-24T09:41:40;23.10;1.00
4922;DHT22;16625;53.624;10.106;2023-06-24T09:44:08;23.00;1.00
4922;DHT22;16625;53.624;10.106;2023-06-24T09:46:38;23.20;1.00
4922;DHT22;16625;53.624;10.106;2023-06-24T09:49:06;23.20;1.00
4922;DHT22;16625;53.624;10.106;2023-06-24T09:51:37;22.90;1.00
4922;DHT22;16625;53.624;10.106;2023-06-24T09:54:06;23.00;1.00
4922;DHT22;16625;53.624;10.106;2023-06-24T09:56:35;23.10;1.00
4922;DHT22;16625;53.624;10.106;2023-06-24T09:59:04;22.90;1.00
4922;DHT22;16625;53.624;10.106;2023-06-24T10:01:32;22.90;1.00
4922;DHT22;16625;53.624;10.106;2023-06-24T10:04:04;23.00;1.00
4922;DHT22;16625;53.624;10.106;2023-06-24T10:06:32;23.20;1.00
4922;DHT22;16625;53.624;10.106;2023-06-24T10:08:59;23.40;1.00
4922;DHT22;16625;53.624;10.106;2023-06-24T10:11:26;23.40;1.00
4922;DHT22;16625;53.624;10.106;2023-06-24T10:13:53;23.30;1.00
4922;DHT22;16625;53.624;10.106;2023-06-24T10:16:21;23.30;1.00
4922;DHT22;16625;53.624;10.106;2023-06-24T10:18:49;23.20;1.00
4922;DHT22;16625;53.624;10.106;2023-06-24T10:21:17;23.50;1.00
4922;DHT22;16625;53.624;10.106;2023-06-24T10:23:51;23.50;1.00
4922;DHT22;16625;53.624;10.106;2023-06-24T10:26:24;23.70;1.00
4922;DHT22;16625;53.624;10.106;2023-06-24T10:29:10;23.80;1.00
4922;DHT22;16625;53.624;10.106;2023-06-24T10:31:52;23.80;1.00
4922;DHT22;16625;53.624;10.106;2023-06-24T10:34:40;23.50;1.00
4922;DHT22;16625;53.624;10.106;2023-06-24T10:37:13;23.60;1.00
4922;DHT22;16625;53.624;10.106;2023-06-24T10:39:51;23.20;1.00
4922;DHT22;16625;53.624;10.106;2023-06-24T10:42:31;23.30;1.00
4922;DHT22;16625;53.624;10.106;2023-06-24T10:45:01;23.70;1.00
4922;DHT22;16625;53.624;10.106;2023-06-24T10:47:29;24.00;1.00
4922;DHT22;16625;53.624;10.106;2023-06-24T10:49:56;23.90;1.00
4922;DHT22;16625;53.624;10.106;2023-06-24T10:52:25;23.80;1.00
4922;DHT22;16625;53.624;10.106;2023-06-24T10:54:53;24.20;1.00
4922;DHT22;16625;53.624;10.106;2023-06-24T10:57:23;24.00;99.90
4922;DHT22;16625;53.624;10.106;2023-06-24T10:59:51;23.80;99.90
4922;DHT22;16625;53.624;10.106;2023-06-24T11:02:20;23.80;99.90
4922;DHT22;16625;53.624;10.106;2023-06-24T11:04:48;24.00;99.90
4922;DHT22;16625;53.624;10.106;2023-06-24T11:07:17;24.10;99.90
4922;DHT22;16625;53.624;10.106;2023-06-24T11:09:50;24.30;99.90
4922;DHT22;16625;53.624;10.106;2023-06-24T11:12:17;24.50;99.90
4922;DHT22;16625;53.624;10.106;2023-06-24T11:14:44;24.40;99.90
4922;DHT22;16625;53.624;10.106;2023-06-24T11:17:11;24.40;99.90
4922;DHT22;16625;53.624;10.106;2023-06-24T11:19:38;24.60;99.90
4922;DHT22;16625;53.624;10.106;2023-06-24T11:22:07;24.60;99.90
4922;DHT22;16625;53.624;10.106;2023-06-24T11:24:34;24.50;99.90
4922;DHT22;16625;53.624;10.106;2023-06-24T11:27:04;24.70;99.90
4922;DHT22;16625;53.624;10.106;2023-06-24T11:29:32;24.70;99.90
4922;DHT22;16625;53.624;10.106;2023-06-24T11:32:01;24.80;99.90
4922;DHT22;16625;53.624;10.106;2023-06-24T11:34:29;24.80;99.90
4922;DHT22;16625;53.624;10.106;2023-06-24T11:36:56;24.70;99.90
4922;DHT22;16625;53.624;10.106;2023-06-24T11:39:24;25.10;99.90
4922;DHT22;16625;53.624;10.106;2023-06-24T11:41:52;25.10;99.90
4922;DHT22;16625;53.624;10.106;2023-06-24T11:44:21;25.20;99.90
4922;DHT22;16625;53.624;10.106;2023-06-24T11:46:48;25.20;99.90
4922;DHT22;16625;53.624;10.106;2023-06-24T11:49:15;25.50;99.90
4922;DHT22;16625;53.624;10.106;2023-06-24T11:51:49;25.80;99.90
4922;DHT22;16625;53.624;10.106;2023-06-24T11:54:20;25.60;99.90
4922;DHT22;16625;53.624;10.106;2023-06-24T11:56:50;25.40;99.90
4922;DHT22;16625;53.624;10.106;2023-06-24T11:59:20;25.30;99.90
4922;DHT22;16625;53.624;10.106;2023-06-24T12:01:54;25.40;99.90
4922;DHT22;16625;53.624;10.106;2023-06-24T12:04:21;25.70;99.90
4922;DHT22;16625;53.624;10.106;2023-06-24T12:06:53;25.80;99.90
4922;DHT22;16625;53.624;10.106;2023-06-24T12:09:20;26.10;99.90
4922;DHT22;16625;53.624;10.106;2023-06-24T12:11:47;25.80;99.90
4922;DHT22;16625;53.624;10.106;2023-06-24T12:14:14;25.10;99.90
4922;DHT22;16625;53.624;10.106;2023-06-24T12:16:42;24.80;99.90
4922;DHT22;16625;53.624;10.106;2023-06-24T12:19:09;24.80;99.90
4922;DHT22;16625;53.624;10.106;2023-06-24T12:21:37;25.00;99.90
4922;DHT22;16625;53.624;10.106;2023-06-24T12:24:05;25.30;99.90
4922;DHT22;16625;53.624;10.106;2023-06-24T12:26:32;25.80;99.90
4922;DHT22;16625;53.624;10.106;2023-06-24T12:28:59;25.80;99.90
4922;DHT22;16625;53.624;10.106;2023-06-24T12:31:26;25.40;99.90
4922;DHT22;16625;53.624;10.106;2023-06-24T12:33:54;25.70;99.90
4922;DHT22;16625;53.624;10.106;2023-06-24T12:36:21;25.80;99.90
4922;DHT22;16625;53.624;10.106;2023-06-24T12:38:48;25.50;99.90
4922;DHT22;16625;53.624;10.106;2023-06-24T12:41:15;25.60;99.90
4922;DHT22;16625;53.624;10.106;2023-06-24T12:43:42;25.90;99.90
4922;DHT22;16625;53.624;10.106;2023-06-24T12:46:09;26.30;99.90
4922;DHT22;16625;53.624;10.106;2023-06-24T12:48:36;26.80;99.90
4922;DHT22;16625;53.624;10.106;2023-06-24T12:51:04;26.90;99.90
4922;DHT22;16625;53.624;10.106;2023-06-24T12:53:31;27.20;99.90
4922;DHT22;16625;53.624;10.106;2023-06-24T12:55:58;27.00;99.90
4922;DHT22;16625;53.624;10.106;2023-06-24T12:58:25;26.80;99.90
4922;DHT22;16625;53.624;10.106;2023-06-24T13:00:52;26.40;99.90
4922;DHT22;16625;53.624;10.106;2023-06-24T13:03:19;26.40;99.90
4922;DHT22;16625;53.624;10.106;2023-06-24T13:05:46;26.40;99.90
4922;DHT22;16625;53.624;10.106;2023-06-24T13:08:14;26.30;99.90
4922;DHT22;16625;53.624;10.106;2023-06-24T13:10:41;26.20;99.90
4922;DHT22;16625;53.624;10.106;2023-06-24T13:13:08;26.10;99.90
4922;DHT22;16625;53.624;10.106;2023-06-24T13:15:35;26.10;99.90
4922;DHT22;16625;53.624;10.106;2023-06-24T13:18:04;26.20;99.90
4922;DHT22;16625;53.624;10.106;2023-06-24T13:20:30;25.80;99.90
4922;DHT22;16625;53.624;10.106;2023-06-24T13:22:57;25.80;99.90
4922;DHT22;16625;53.624;10.106;2023-06-24T13:25:26;25.90;99.90
4922;DHT22;16625;53.624;10.106;2023-06-24T13:27:52;26.40;99.90
4922;DHT22;16625;53.624;10.106;2023-06-24T13:30:19;26.60;99.90
4922;DHT22;16625;53.624;10.106;2023-06-24T13:32:47;26.50;99.90
4922;DHT22;16625;53.624;10.106;2023-06-24T13:35:15;26.40;99.90
4922;DHT22;16625;53.624;10.106;2023-06-24T13:37:41;26.30;99.90
4922;DHT22;16625;53.624;10.106;2023-06-24T13:40:09;26.20;99.90
4922;DHT22;16625;53.624;10.106;2023-06-24T13:42:38;26.30;99.90
4922;DHT22;16625;53.624;10.106;2023-06-24T13:45:05;26.50;99.90
4922;DHT22;16625;53.624;10.106;2023-06-24T13:47:32;26.80;99.90
4922;DHT22;16625;53.624;10.106;2023-06-24T13:49:59;26.80;99.90
4922;DHT22;16625;53.624;10.106;2023-06-24T13:52:26;26.70;99.90
4922;DHT22;16625;53.624;10.106;2023-06-24T13:54:53;27.10;99.90
4922;DHT22;16625;53.624;10.106;2023-06-24T13:57:20;26.70;99.90
4922;DHT22;16625;53.624;10.106;2023-06-24T13:59:49;27.00;99.90
4922;DHT22;16625;53.624;10.106;2023-06-24T14:02:16;26.50;99.90
4922;DHT22;16625;53.624;10.106;2023-06-24T14:04:43;26.40;99.90
4922;DHT22;16625;53.624;10.106;2023-06-24T14:07:10;26.50;99.90
4922;DHT22;16625;53.624;10.106;2023-06-24T14:09:37;26.40;99.90
4922;DHT22;16625;53.624;10.106;2023-06-24T14:12:06;26.50;99.90
4922;DHT22;16625;53.624;10.106;2023-06-24T14:14:34;26.60;99.90
4922;DHT22;16625;53.624;10.106;2023-06-24T14:17:04;26.80;99.90
4922;DHT22;16625;53.624;10.106;2023-06-24T14:19:34;26.90;99.90
4922;DHT22;16625;53.624;10.106;2023-06-24T14:22:01;27.10;99.90
4922;DHT22;16625;53.624;10.106;2023-06-24T14:24:28;27.00;99.90
4922;DHT22;16625;53.624;10.106;2023-06-24T14:26:55;27.20;99.90
4922;DHT22;16625;53.624;10.106;2023-06-24T14:29:23;27.00;99.90
4922;DHT22;16625;53.624;10.106;2023-06-24T14:31:50;27.10;99.90
4922;DHT22;16625;53.624;10.106;2023-06-24T14:34:19;27.50;99.90
4922;DHT22;16625;53.624;10.106;2023-06-24T14:36:46;28.00;99.90
4922;DHT22;16625;53.624;10.106;2023-06-24T14:39:14;27.70;99.90
4922;DHT22;16625;53.624;10.106;2023-06-24T14:41:41;27.60;99.90
4922;DHT22;16625;53.624;10.106;2023-06-24T14:44:08;27.50;99.90
4922;DHT22;16625;53.624;10.106;2023-06-24T14:46:35;27.50;99.90
4922;DHT22;16625;53.624;10.106;2023-06-24T14:49:02;27.50;99.90
4922;DHT22;16625;53.624;10.106;2023-06-24T14:51:30;27.60;99.90
4922;DHT22;16625;53.624;10.106;2023-06-24T14:53:57;27.20;99.90
4922;DHT22;16625;53.624;10.106;2023-06-24T14:56:24;27.30;99.90
4922;DHT22;16625;53.624;10.106;2023-06-24T14:58:51;27.20;99.90
4922;DHT22;16625;53.624;10.106;2023-06-24T15:01:18;27.20;99.90
4922;DHT22;16625;53.624;10.106;2023-06-24T15:03:44;26.80;99.90
4922;DHT22;16625;53.624;10.106;2023-06-24T15:06:11;27.20;99.90
4922;DHT22;16625;53.624;10.106;2023-06-24T15:08:40;27.40;99.90
4922;DHT22;16625;53.624;10.106;2023-06-24T15:11:07;27.50;99.90
4922;DHT22;16625;53.624;10.106;2023-06-24T15:13:34;27.50;99.90
4922;DHT22;16625;53.624;10.106;2023-06-24T15:16:00;27.30;99.90
4922;DHT22;16625;53.624;10.106;2023-06-24T15:18:28;27.40;99.90
4922;DHT22;16625;53.624;10.106;2023-06-24T15:20:55;27.60;99.90
4922;DHT22;16625;53.624;10.106;2023-06-24T15:23:22;27.70;99.90
4922;DHT22;16625;53.624;10.106;2023-06-24T15:25:50;27.50;99.90
4922;DHT22;16625;53.624;10.106;2023-06-24T15:28:18;27.10;99.90
4922;DHT22;16625;53.624;10.106;2023-06-24T15:30:45;27.40;99.90
4922;DHT22;16625;53.624;10.106;2023-06-24T15:33:12;27.90;99.90
4922;DHT22;16625;53.624;10.106;2023-06-24T15:35:39;28.30;99.90
4922;DHT22;16625;53.624;10.106;2023-06-24T15:38:05;28.40;99.90
4922;DHT22;16625;53.624;10.106;2023-06-24T15:40:32;28.00;99.90
4922;DHT22;16625;53.624;10.106;2023-06-24T15:43:01;27.80;99.90
4922;DHT22;16625;53.624;10.106;2023-06-24T15:45:28;27.60;99.90